createdAt,value
2022-09-12T00:00:51.237Z,12.37
2022-09-12T00:03:17.847Z,12.41
2022-09-12T00:05:46.392Z,12.38
2022-09-12T00:08:14.244Z,12.42
2022-09-12T00:10:42.937Z,12.32
2022-09-12T00:13:11.176Z,12.40
2022-09-12T00:15:42.315Z,12.34
2022-09-12T00:18:12.402Z,12.34
2022-09-12T00:20:47.054Z,12.23
2022-09-12T00:23:15.049Z,12.29
2022-09-12T00:25:46.793Z,12.16
2022-09-12T00:28:15.745Z,12.15
2022-09-12T00:30:43.862Z,12.02
2022-09-12T00:33:11.484Z,12.07
2022-09-12T00:35:49.744Z,12.01
2022-09-12T00:38:17.407Z,11.94
2022-09-12T00:40:44.727Z,11.86
2022-09-12T00:43:31.835Z,11.81
2022-09-12T00:46:02.426Z,11.80
2022-09-12T00:48:34.908Z,11.80
2022-09-12T00:51:02.194Z,11.81
2022-09-12T00:53:29.186Z,11.82
2022-09-12T00:55:57.672Z,11.78
2022-09-12T00:58:39.985Z,11.73
2022-09-12T01:01:06.774Z,11.80
2022-09-12T01:03:33.819Z,11.73
2022-09-12T01:06:16.169Z,11.77
2022-09-12T01:08:44.559Z,11.73
2022-09-12T01:11:13.264Z,11.71
2022-09-12T01:13:40.282Z,11.77
2022-09-12T01:16:08.316Z,11.69
2022-09-12T01:18:55.659Z,11.70
2022-09-12T01:21:48.637Z,11.68
2022-09-12T01:24:48.955Z,11.58
2022-09-12T01:27:44.623Z,11.59
2022-09-12T01:30:32.511Z,11.67
2022-09-12T01:33:20.449Z,11.60
2022-09-12T01:36:14.086Z,11.68
2022-09-12T01:38:50.351Z,11.79
2022-09-12T01:41:31.851Z,11.72
2022-09-12T01:44:02.489Z,11.79
2022-09-12T01:46:44.511Z,11.65
2022-09-12T01:49:25.387Z,11.80
2022-09-12T01:52:15.905Z,11.72
2022-09-12T01:54:49.380Z,11.69
2022-09-12T01:57:32.435Z,11.53
2022-09-12T02:00:04.252Z,11.63
2022-09-12T02:02:36.018Z,11.52
2022-09-12T02:05:16.362Z,11.51
2022-09-12T02:07:46.975Z,11.55
2022-09-12T02:10:18.051Z,11.58
2022-09-12T02:12:53.426Z,11.68
2022-09-12T02:15:24.298Z,11.60
2022-09-12T02:17:54.059Z,11.47
2022-09-12T02:20:49.601Z,11.44
2022-09-12T02:23:25.086Z,11.54
2022-09-12T02:25:57.828Z,11.50
2022-09-12T02:28:36.224Z,11.52
2022-09-12T02:31:08.747Z,11.49
2022-09-12T02:33:50.551Z,11.43
2022-09-12T02:36:50.046Z,11.44
2022-09-12T02:39:21.235Z,11.38
2022-09-12T02:41:51.881Z,11.31
2022-09-12T02:44:19.119Z,11.33
2022-09-12T02:46:51.085Z,11.38
2022-09-12T02:49:17.791Z,11.29
2022-09-12T02:51:46.614Z,11.27
2022-09-12T02:54:16.398Z,11.26
2022-09-12T02:56:45.115Z,11.16
2022-09-12T02:59:16.973Z,11.05
2022-09-12T03:01:59.919Z,11.06
2022-09-12T03:05:11.063Z,10.98
2022-09-12T03:07:51.919Z,10.97
2022-09-12T03:10:21.074Z,10.84
2022-09-12T03:13:03.618Z,10.73
2022-09-12T03:15:59.521Z,10.67
2022-09-12T03:18:50.559Z,10.64
2022-09-12T03:21:27.866Z,10.60
2022-09-12T03:24:05.264Z,10.63
2022-09-12T03:26:53.481Z,10.56
2022-09-12T03:29:21.798Z,10.51
2022-09-12T03:31:54.458Z,10.59
2022-09-12T03:34:22.644Z,10.68
2022-09-12T03:36:49.523Z,10.62
2022-09-12T03:39:17.002Z,10.46
2022-09-12T03:41:43.582Z,10.47
2022-09-12T03:44:10.259Z,10.44
2022-09-12T03:46:36.826Z,10.59
2022-09-12T03:49:03.626Z,10.50
2022-09-12T03:51:30.271Z,10.49
2022-09-12T03:53:56.842Z,10.52
2022-09-12T03:56:23.434Z,10.51
2022-09-12T03:58:49.940Z,10.40
2022-09-12T04:01:19.085Z,10.37
2022-09-12T04:03:50.745Z,10.48
2022-09-12T04:06:19.815Z,10.27
2022-09-12T04:08:54.794Z,10.27
2022-09-12T04:11:22.482Z,10.13
2022-09-12T04:13:49.225Z,10.09
2022-09-12T04:16:17.517Z,10.13
2022-09-12T04:18:44.361Z,10.06
2022-09-12T04:21:14.747Z,10.17
2022-09-12T04:23:41.393Z,10.04
2022-09-12T04:26:08.226Z,9.96
2022-09-12T04:28:36.139Z,10.04
2022-09-12T04:31:09.048Z,9.97
2022-09-12T04:33:36.340Z,10.04
2022-09-12T04:36:04.875Z,10.14
2022-09-12T04:38:31.708Z,10.00
2022-09-12T04:40:58.191Z,9.99
2022-09-12T04:43:24.771Z,9.88
2022-09-12T04:45:52.037Z,9.84
2022-09-12T04:48:19.066Z,9.89
2022-09-12T04:50:45.602Z,9.86
2022-09-12T04:53:12.224Z,9.78
2022-09-12T04:55:38.742Z,9.85
2022-09-12T04:58:05.267Z,9.73
2022-09-12T05:00:31.844Z,9.78
2022-09-12T05:02:58.397Z,9.80
2022-09-12T05:05:25.026Z,9.77
2022-09-12T05:07:51.611Z,9.83
2022-09-12T05:10:18.248Z,9.75
2022-09-12T05:12:44.835Z,9.74
2022-09-12T05:15:11.690Z,9.75
2022-09-12T05:17:38.205Z,9.78
2022-09-12T05:20:05.184Z,9.88
2022-09-12T05:22:31.686Z,9.88
2022-09-12T05:24:58.181Z,9.92
2022-09-12T05:27:24.809Z,9.94
2022-09-12T05:29:51.441Z,9.99
2022-09-12T05:32:18.012Z,10.01
2022-09-12T05:34:44.591Z,10.19
2022-09-12T05:37:11.296Z,10.28
2022-09-12T05:39:37.821Z,10.31
2022-09-12T05:42:04.686Z,10.31
2022-09-12T05:44:31.178Z,10.38
2022-09-12T05:46:57.890Z,10.41
2022-09-12T05:49:24.543Z,10.53
2022-09-12T05:51:51.653Z,10.52
2022-09-12T05:54:20.450Z,10.62
2022-09-12T05:56:47.405Z,10.74
2022-09-12T05:59:17.207Z,10.82
2022-09-12T06:01:44.657Z,10.89
2022-09-12T06:04:12.403Z,11.02
2022-09-12T06:06:47.379Z,11.02
2022-09-12T06:09:15.928Z,11.26
2022-09-12T06:11:42.699Z,11.38
2022-09-12T06:14:11.570Z,11.50
2022-09-12T06:16:39.096Z,11.76
2022-09-12T06:19:15.240Z,12.16
2022-09-12T06:21:42.178Z,12.35
2022-09-12T06:24:08.830Z,12.55
2022-09-12T06:26:35.694Z,12.72
2022-09-12T06:29:02.994Z,12.92
2022-09-12T06:31:33.162Z,13.07
2022-09-12T06:34:02.015Z,13.18
2022-09-12T06:36:31.858Z,13.28
2022-09-12T06:39:03.811Z,13.54
2022-09-12T06:41:31.359Z,13.74
2022-09-12T06:43:59.158Z,13.85
2022-09-12T06:46:26.729Z,13.83
2022-09-12T06:48:53.862Z,14.07
2022-09-12T06:51:20.542Z,14.32
2022-09-12T06:53:49.049Z,14.39
2022-09-12T06:56:19.253Z,14.69
2022-09-12T06:58:47.228Z,14.60
2022-09-12T07:01:18.212Z,14.86
2022-09-12T07:03:51.815Z,14.87
2022-09-12T07:06:20.424Z,15.18
2022-09-12T07:08:47.823Z,15.32
2022-09-12T07:11:20.335Z,15.40
2022-09-12T07:13:51.025Z,15.49
2022-09-12T07:16:19.948Z,15.61
2022-09-12T07:18:55.060Z,15.71
2022-09-12T07:21:21.994Z,15.91
2022-09-12T07:23:49.247Z,15.94
2022-09-12T07:26:16.482Z,15.93
2022-09-12T07:28:43.176Z,16.00
2022-09-12T07:31:11.834Z,16.05
2022-09-12T07:33:39.332Z,16.15
2022-09-12T07:36:08.788Z,15.85
2022-09-12T07:38:35.402Z,16.11
2022-09-12T07:41:02.051Z,16.07
2022-09-12T07:43:28.619Z,16.32
2022-09-12T07:45:56.733Z,16.31
2022-09-12T07:48:23.381Z,16.40
2022-09-12T07:51:00.600Z,16.76
2022-09-12T07:53:32.870Z,16.80
2022-09-12T07:55:59.811Z,16.80
2022-09-12T07:58:26.866Z,16.81
2022-09-12T08:00:53.684Z,17.19
2022-09-12T08:03:21.089Z,17.16
2022-09-12T08:05:47.682Z,17.10
2022-09-12T08:08:14.194Z,17.30
2022-09-12T08:10:40.793Z,17.26
2022-09-12T08:13:08.761Z,17.17
2022-09-12T08:15:36.682Z,17.37
2022-09-12T08:18:03.265Z,17.49
2022-09-12T08:20:30.422Z,17.50
2022-09-12T08:22:56.976Z,17.60
2022-09-12T08:25:23.554Z,17.52
2022-09-12T08:27:50.335Z,17.89
2022-09-12T08:30:16.880Z,17.91
2022-09-12T08:32:43.374Z,18.02
2022-09-12T08:35:09.957Z,18.15
2022-09-12T08:37:36.457Z,18.21
2022-09-12T08:40:06.844Z,18.04
2022-09-12T08:42:52.119Z,18.16
2022-09-12T08:45:28.044Z,18.27
2022-09-12T08:47:56.533Z,18.35
2022-09-12T08:50:23.218Z,18.22
2022-09-12T08:52:53.198Z,18.38
2022-09-12T08:55:40.384Z,18.58
2022-09-12T08:58:28.435Z,18.75
2022-09-12T09:01:31.394Z,18.91
2022-09-12T09:04:28.929Z,19.08
2022-09-12T09:07:01.586Z,19.07
2022-09-12T09:09:42.936Z,19.14
2022-09-12T09:12:40.208Z,19.26
2022-09-12T09:15:30.854Z,19.22
2022-09-12T09:18:13.245Z,19.40
2022-09-12T09:20:43.596Z,19.22
2022-09-12T09:23:31.036Z,19.34
2022-09-12T09:26:08.771Z,19.40
2022-09-12T09:28:54.237Z,19.40
2022-09-12T09:31:26.405Z,19.18
2022-09-12T09:33:57.498Z,19.46
2022-09-12T09:36:57.923Z,19.58
2022-09-12T09:39:42.887Z,19.60
2022-09-12T09:42:13.243Z,19.71
2022-09-12T09:44:40.170Z,19.64
2022-09-12T09:47:10.587Z,19.80
2022-09-12T09:49:37.520Z,19.96
2022-09-12T09:52:07.181Z,20.03
2022-09-12T09:54:47.539Z,20.21
2022-09-12T09:57:42.077Z,20.10
2022-09-12T10:00:30.605Z,20.00
2022-09-12T10:03:29.904Z,19.82
2022-09-12T10:06:25.448Z,20.05
2022-09-12T10:08:52.162Z,20.10
2022-09-12T10:11:22.707Z,20.21
2022-09-12T10:13:58.127Z,20.25
2022-09-12T10:16:27.898Z,20.38
2022-09-12T10:18:59.548Z,20.54
2022-09-12T10:21:49.081Z,20.46
2022-09-12T10:24:36.689Z,20.44
2022-09-12T10:27:12.271Z,20.44
2022-09-12T10:29:49.407Z,20.55
2022-09-12T10:32:29.977Z,20.40
2022-09-12T10:35:09.017Z,20.72
2022-09-12T10:37:39.775Z,20.72
2022-09-12T10:40:20.654Z,20.71
2022-09-12T10:42:58.829Z,21.05
2022-09-12T10:45:26.791Z,21.17
2022-09-12T10:47:55.794Z,21.25
2022-09-12T10:50:26.841Z,21.33
2022-09-12T10:53:40.467Z,21.44
2022-09-12T10:56:09.252Z,21.49
2022-09-12T10:58:51.007Z,21.44
2022-09-12T11:01:32.653Z,21.60
2022-09-12T11:04:04.881Z,21.63
2022-09-12T11:06:48.668Z,21.67
2022-09-12T11:09:31.655Z,21.75
2022-09-12T11:12:19.872Z,21.86
2022-09-12T11:14:57.882Z,21.93
2022-09-12T11:17:36.963Z,21.86
2022-09-12T11:20:32.341Z,21.92
2022-09-12T11:23:31.225Z,21.89
2022-09-12T11:26:25.277Z,21.97
2022-09-12T11:29:09.300Z,21.87
2022-09-12T11:31:44.491Z,22.08
2022-09-12T11:34:15.591Z,22.02
2022-09-12T11:37:17.901Z,22.26
2022-09-12T11:39:52.274Z,22.27
2022-09-12T11:42:28.494Z,22.27
2022-09-12T11:45:08.083Z,22.30
2022-09-12T11:47:36.467Z,22.23
2022-09-12T11:50:15.474Z,22.39
2022-09-12T11:52:41.996Z,22.18
2022-09-12T11:55:24.604Z,22.23
2022-09-12T11:57:57.294Z,22.37
2022-09-12T12:00:26.697Z,22.41
2022-09-12T12:03:09.575Z,22.54
2022-09-12T12:05:49.628Z,22.66
2022-09-12T12:08:16.402Z,22.67
2022-09-12T12:10:57.610Z,22.58
2022-09-12T12:13:32.624Z,22.62
2022-09-12T12:16:12.916Z,22.83
2022-09-12T12:18:40.755Z,22.72
2022-09-12T12:21:31.760Z,22.81
2022-09-12T12:24:07.275Z,22.83
2022-09-12T12:26:39.756Z,23.00
2022-09-12T12:29:18.303Z,23.02
2022-09-12T12:31:59.879Z,23.20
2022-09-12T12:34:29.406Z,23.33
2022-09-12T12:36:56.419Z,23.24
2022-09-12T12:39:31.923Z,23.32
2022-09-12T12:41:59.999Z,23.25
2022-09-12T12:44:59.228Z,23.23
2022-09-12T12:47:28.947Z,23.38
2022-09-12T12:50:02.692Z,23.49
2022-09-12T12:52:32.649Z,23.47
2022-09-12T12:55:02.724Z,23.56
2022-09-12T12:57:46.119Z,23.44
2022-09-12T13:00:24.988Z,23.57
2022-09-12T13:02:57.952Z,23.68
2022-09-12T13:05:26.822Z,23.68
2022-09-12T13:08:16.673Z,23.80
2022-09-12T13:10:52.079Z,23.72
2022-09-12T13:13:37.351Z,23.65
2022-09-12T13:16:04.473Z,23.71
2022-09-12T13:18:49.190Z,23.63
2022-09-12T13:21:20.784Z,23.44
2022-09-12T13:24:15.313Z,23.61
2022-09-12T13:29:17.794Z,23.83
2022-09-12T13:31:47.612Z,23.91
2022-09-12T13:34:24.468Z,24.09
2022-09-12T13:36:53.840Z,24.18
2022-09-12T13:39:46.274Z,24.31
2022-09-12T13:42:35.370Z,24.23
2022-09-12T13:45:13.047Z,24.34
2022-09-12T13:47:43.456Z,24.44
2022-09-12T13:50:32.371Z,24.44
2022-09-12T13:53:02.678Z,24.62
2022-09-12T13:55:41.738Z,24.61
2022-09-12T13:58:17.535Z,24.77
2022-09-12T14:00:45.039Z,24.82
2022-09-12T14:03:48.007Z,24.88
2022-09-12T14:06:16.602Z,25.00
2022-09-12T14:08:44.079Z,25.16
2022-09-12T14:11:12.584Z,25.01
2022-09-12T14:13:39.436Z,25.24
2022-09-12T14:16:09.886Z,25.32
2022-09-12T14:18:38.729Z,25.24
2022-09-12T14:21:12.217Z,25.31
2022-09-12T14:23:45.247Z,25.48
2022-09-12T14:26:13.612Z,25.71
2022-09-12T14:28:48.024Z,25.83
2022-09-12T14:31:15.749Z,25.88
2022-09-12T14:33:56.471Z,26.00
2022-09-12T14:36:55.143Z,26.30
2022-09-12T14:39:39.902Z,26.11
2022-09-12T14:42:13.116Z,26.03
2022-09-12T14:44:40.881Z,26.39
2022-09-12T14:47:20.023Z,26.48
2022-09-12T14:49:48.560Z,26.51
2022-09-12T14:52:32.368Z,26.53
2022-09-12T14:55:00.653Z,26.58
2022-09-12T14:57:42.342Z,26.78
2022-09-12T15:00:11.964Z,26.99
2022-09-12T15:02:40.510Z,28.86
2022-09-12T15:05:06.978Z,30.89
2022-09-12T15:07:34.973Z,32.64
2022-09-12T15:10:10.875Z,34.45
2022-09-12T15:12:37.378Z,35.73
2022-09-12T15:15:18.819Z,37.17
2022-09-12T15:17:45.506Z,38.01
2022-09-12T15:20:13.486Z,39.04
2022-09-12T15:22:41.828Z,39.22
2022-09-12T15:25:10.697Z,39.27
2022-09-12T15:27:40.841Z,39.86
2022-09-12T15:30:10.261Z,40.77
2022-09-12T15:32:37.302Z,40.67
2022-09-12T15:35:04.220Z,41.52
2022-09-12T15:37:31.105Z,41.60
2022-09-12T15:39:57.685Z,41.59
2022-09-12T15:42:29.289Z,41.92
2022-09-12T15:44:58.450Z,39.69
2022-09-12T15:47:28.951Z,42.20
2022-09-12T15:49:55.454Z,42.94
2022-09-12T15:52:21.971Z,42.00
2022-09-12T15:54:48.538Z,42.13
2022-09-12T15:57:15.215Z,43.06
2022-09-12T15:59:41.705Z,42.60
2022-09-12T16:02:09.980Z,42.90
2022-09-12T16:04:36.533Z,42.75
2022-09-12T16:07:03.123Z,41.87
2022-09-12T16:09:29.818Z,41.72
2022-09-12T16:11:56.332Z,42.69
2022-09-12T16:14:23.015Z,41.48
2022-09-12T16:16:54.178Z,40.97
2022-09-12T16:19:20.801Z,41.18
2022-09-12T16:21:47.782Z,41.37
2022-09-12T16:24:14.277Z,40.15
2022-09-12T16:26:40.834Z,40.45
2022-09-12T16:29:07.460Z,39.07
2022-09-12T16:31:34.073Z,36.31
2022-09-12T16:34:00.622Z,33.75
2022-09-12T16:36:27.129Z,30.53
2022-09-12T16:38:54.196Z,27.85
2022-09-12T16:41:25.048Z,26.81
2022-09-12T16:43:52.083Z,25.96
2022-09-12T16:46:21.344Z,24.58
2022-09-12T16:48:52.418Z,23.99
2022-09-12T16:51:25.980Z,23.81
2022-09-12T16:53:54.126Z,23.23
2022-09-12T16:56:21.126Z,22.88
2022-09-12T16:58:47.943Z,22.67
2022-09-12T17:01:16.656Z,22.70
2022-09-12T17:03:44.051Z,22.42
2022-09-12T17:06:16.544Z,22.21
2022-09-12T17:08:45.766Z,22.04
2022-09-12T17:11:15.355Z,21.66
2022-09-12T17:14:03.834Z,21.56
2022-09-12T17:16:32.925Z,21.34
2022-09-12T17:18:59.426Z,21.08
2022-09-12T17:21:26.395Z,20.87
2022-09-12T17:23:52.939Z,20.76
2022-09-12T17:26:19.578Z,20.37
2022-09-12T17:28:46.165Z,20.14
2022-09-12T17:31:15.113Z,20.07
2022-09-12T17:33:42.132Z,20.07
2022-09-12T17:36:13.300Z,19.93
2022-09-12T17:38:39.931Z,19.77
2022-09-12T17:41:08.517Z,19.75
2022-09-12T17:43:37.890Z,19.45
2022-09-12T17:46:05.330Z,19.20
2022-09-12T17:48:32.510Z,18.97
2022-09-12T17:50:59.381Z,18.75
2022-09-12T17:53:25.944Z,18.63
2022-09-12T17:55:54.312Z,18.65
2022-09-12T17:58:21.037Z,18.52
2022-09-12T18:01:06.359Z,18.49
2022-09-12T18:03:35.281Z,18.36
2022-09-12T18:06:02.291Z,18.19
2022-09-12T18:08:28.889Z,18.07
2022-09-12T18:11:04.577Z,17.93
2022-09-12T18:13:35.019Z,17.70
2022-09-12T18:16:07.242Z,17.63
2022-09-12T18:18:35.157Z,17.56
2022-09-12T18:21:04.149Z,17.60
2022-09-12T18:23:32.010Z,17.66
2022-09-12T18:26:00.208Z,17.65
2022-09-12T18:28:27.004Z,17.56
2022-09-12T18:30:53.881Z,17.39
2022-09-12T18:33:23.907Z,17.30
2022-09-12T18:35:50.899Z,17.34
2022-09-12T18:38:17.580Z,17.30
2022-09-12T18:40:44.152Z,17.32
2022-09-12T18:43:10.790Z,17.23
2022-09-12T18:45:37.388Z,17.17
2022-09-12T18:48:06.146Z,17.18
2022-09-12T18:50:33.364Z,17.30
2022-09-12T18:53:00.139Z,17.13
2022-09-12T18:55:26.920Z,17.03
2022-09-12T18:57:55.629Z,16.97
2022-09-12T19:00:22.304Z,17.18
2022-09-12T19:02:49.152Z,17.11
2022-09-12T19:05:15.994Z,16.95
2022-09-12T19:07:42.602Z,16.78
2022-09-12T19:10:09.183Z,16.90
2022-09-12T19:12:35.807Z,17.01
2022-09-12T19:15:02.754Z,16.79
2022-09-12T19:17:29.570Z,16.72
2022-09-12T19:19:56.156Z,16.73
2022-09-12T19:22:22.669Z,16.61
2022-09-12T19:24:49.240Z,16.48
2022-09-12T19:27:16.185Z,16.52
2022-09-12T19:29:42.733Z,16.50
2022-09-12T19:32:09.331Z,16.39
2022-09-12T19:34:35.910Z,16.52
2022-09-12T19:37:02.502Z,16.57
2022-09-12T19:39:29.043Z,16.50
2022-09-12T19:41:55.569Z,16.51
2022-09-12T19:44:23.694Z,16.38
2022-09-12T19:46:51.107Z,16.39
2022-09-12T19:49:17.625Z,16.27
2022-09-12T19:51:44.470Z,16.17
2022-09-12T19:54:11.476Z,16.22
2022-09-12T19:56:38.263Z,16.16
2022-09-12T19:59:04.999Z,16.25
2022-09-12T20:01:32.525Z,16.13
2022-09-12T20:03:59.381Z,16.12
2022-09-12T20:06:27.419Z,16.02
2022-09-12T20:08:54.875Z,15.98
2022-09-12T20:11:23.475Z,15.93
2022-09-12T20:13:50.622Z,15.82
2022-09-12T20:16:22.136Z,15.79
2022-09-12T20:18:53.728Z,15.83
2022-09-12T20:21:25.293Z,15.75
2022-09-12T20:23:52.063Z,15.79
2022-09-12T20:26:20.333Z,15.69
2022-09-12T20:28:47.198Z,15.67
2022-09-12T20:31:16.358Z,15.64
2022-09-12T20:33:43.720Z,15.73
2022-09-12T20:36:13.890Z,15.59
2022-09-12T20:38:41.927Z,15.52
2022-09-12T20:41:11.005Z,15.52
2022-09-12T20:43:40.918Z,15.53
2022-09-12T20:46:09.976Z,15.59
2022-09-12T20:48:37.146Z,15.54
2022-09-12T20:51:03.922Z,15.51
2022-09-12T20:53:34.711Z,15.58
2022-09-12T20:56:02.077Z,15.52
2022-09-12T20:58:28.600Z,15.55
2022-09-12T21:00:55.270Z,15.65
2022-09-12T21:03:21.902Z,15.59
2022-09-12T21:05:48.394Z,15.53
2022-09-12T21:08:15.268Z,15.43
2022-09-12T21:10:43.034Z,15.37
2022-09-12T21:13:10.626Z,15.40
2022-09-12T21:15:41.083Z,15.42
2022-09-12T21:18:08.129Z,15.48
2022-09-12T21:20:34.751Z,15.66
2022-09-12T21:23:01.440Z,15.57
2022-09-12T21:25:29.153Z,15.55
2022-09-12T21:27:55.842Z,15.46
2022-09-12T21:30:22.902Z,15.39
2022-09-12T21:32:49.513Z,15.64
2022-09-12T21:35:16.346Z,15.76
2022-09-12T21:37:43.035Z,15.57
2022-09-12T21:40:10.054Z,15.44
2022-09-12T21:42:36.633Z,15.60
2022-09-12T21:45:03.365Z,15.41
2022-09-12T21:47:29.886Z,15.36
2022-09-12T21:49:57.616Z,15.38
2022-09-12T21:52:24.182Z,15.39
2022-09-12T21:54:50.703Z,15.35
2022-09-12T21:57:17.259Z,15.37
2022-09-12T21:59:44.315Z,15.42
2022-09-12T22:02:12.447Z,15.39
2022-09-12T22:04:39.395Z,15.24
2022-09-12T22:07:06.064Z,15.22
2022-09-12T22:09:34.382Z,15.31
2022-09-12T22:12:02.513Z,15.24
2022-09-12T22:14:29.506Z,15.15
2022-09-12T22:16:56.842Z,15.15
2022-09-12T22:19:23.578Z,15.12
2022-09-12T22:22:08.827Z,15.03
2022-09-12T22:24:35.319Z,14.95
2022-09-12T22:27:06.505Z,14.95
2022-09-12T22:29:33.932Z,14.93
2022-09-12T22:32:00.883Z,14.93
2022-09-12T22:34:28.815Z,14.95
2022-09-12T22:36:55.782Z,14.97
2022-09-12T22:39:23.078Z,14.95
2022-09-12T22:41:49.855Z,14.89
2022-09-12T22:44:17.839Z,14.84
2022-09-12T22:46:44.570Z,14.78
2022-09-12T22:49:11.125Z,14.68
2022-09-12T22:51:37.671Z,14.63
2022-09-12T22:54:05.731Z,14.63
2022-09-12T22:56:32.368Z,14.70
2022-09-12T22:58:59.047Z,14.69
2022-09-12T23:01:25.827Z,14.70
2022-09-12T23:03:52.393Z,14.78
2022-09-12T23:06:19.051Z,14.80
2022-09-12T23:08:45.810Z,14.82
2022-09-12T23:11:16.950Z,14.75
2022-09-12T23:13:49.331Z,14.74
2022-09-12T23:16:21.769Z,14.74
2022-09-12T23:18:49.061Z,14.92
2022-09-12T23:21:18.094Z,14.73
2022-09-12T23:23:44.908Z,14.70
2022-09-12T23:26:22.996Z,14.63
2022-09-12T23:28:53.946Z,14.66
2022-09-12T23:31:22.785Z,14.63
2022-09-12T23:33:52.254Z,14.70
2022-09-12T23:36:18.902Z,14.72
2022-09-12T23:38:46.636Z,14.71
2022-09-12T23:41:15.229Z,14.74
2022-09-12T23:43:43.134Z,14.63
2022-09-12T23:46:09.782Z,14.57
2022-09-12T23:48:36.414Z,14.63
2022-09-12T23:51:02.926Z,14.66
2022-09-12T23:53:29.688Z,14.53
2022-09-12T23:55:56.229Z,14.52
2022-09-12T23:58:22.931Z,14.54
